createdAt,value
2022-12-01T00:02:01.542Z,97064.78
2022-12-01T00:04:33.141Z,97060.75
2022-12-01T00:07:04.947Z,97056.94
2022-12-01T00:09:36.438Z,97062.53
2022-12-01T00:12:07.949Z,97060.38
2022-12-01T00:14:39.498Z,97055.81
2022-12-01T00:17:11.006Z,97055.53
2022-12-01T00:19:42.554Z,97049.63
2022-12-01T00:22:14.022Z,97061.25
2022-12-01T00:24:46.731Z,97054.84
2022-12-01T00:27:18.296Z,97062.09
2022-12-01T00:29:50.069Z,97057.69
2022-12-01T00:32:21.858Z,97063.22
2022-12-01T00:34:53.427Z,97060.69
2022-12-01T00:37:24.977Z,97055.88
2022-12-01T00:39:57.187Z,97061.72
2022-12-01T00:42:28.687Z,97060.44
2022-12-01T00:45:00.244Z,97060.25
2022-12-01T00:47:31.793Z,97064.88
2022-12-01T00:50:03.966Z,97066.00
2022-12-01T00:52:35.593Z,97065.72
2022-12-01T00:55:07.669Z,97070.09
2022-12-01T00:57:39.209Z,97068.94
2022-12-01T01:00:11.399Z,97070.22
2022-12-01T01:02:44.257Z,97070.16
2022-12-01T01:05:15.869Z,97070.97
2022-12-01T01:07:47.470Z,97068.25
2022-12-01T01:10:19.007Z,97070.59
2022-12-01T01:12:50.548Z,97077.97
2022-12-01T01:15:23.751Z,97074.09
2022-12-01T01:17:55.267Z,97076.81
2022-12-01T01:20:26.981Z,97075.56
2022-12-01T01:22:58.595Z,97076.88
2022-12-01T01:25:32.125Z,97066.13
2022-12-01T01:28:03.808Z,97075.06
2022-12-01T01:30:38.920Z,97074.09
2022-12-01T01:33:10.529Z,97074.69
2022-12-01T01:35:42.061Z,97071.22
2022-12-01T01:38:13.971Z,97071.28
2022-12-01T01:40:47.562Z,97066.13
2022-12-01T01:43:47.068Z,97070.13
2022-12-01T01:46:30.816Z,97070.63
2022-12-01T01:49:13.072Z,97072.22
2022-12-01T01:51:53.755Z,97074.63
2022-12-01T01:54:33.526Z,97069.75
2022-12-01T01:57:09.764Z,97067.81
2022-12-01T01:59:47.755Z,97079.84
2022-12-01T02:02:19.602Z,97076.63
2022-12-01T02:05:01.558Z,97079.00
2022-12-01T02:07:33.330Z,97075.06
2022-12-01T02:10:08.525Z,97082.38
2022-12-01T02:13:01.369Z,97074.81
2022-12-01T02:16:11.201Z,97079.84
2022-12-01T02:18:48.485Z,97088.34
2022-12-01T02:21:29.436Z,97081.16
2022-12-01T02:24:04.013Z,97088.91
2022-12-01T02:27:02.494Z,97083.25
2022-12-01T02:29:39.837Z,97080.22
2022-12-01T02:32:29.764Z,97079.19
2022-12-01T02:35:27.217Z,97078.41
2022-12-01T02:38:28.400Z,97081.28
2022-12-01T02:41:02.715Z,97077.84
2022-12-01T02:43:53.663Z,97067.31
2022-12-01T02:46:34.014Z,97077.63
2022-12-01T02:49:32.137Z,97079.34
2022-12-01T02:52:06.630Z,97075.44
2022-12-01T02:54:39.014Z,97078.44
2022-12-01T02:57:15.041Z,97070.31
2022-12-01T02:59:52.077Z,97071.31
2022-12-01T03:02:26.640Z,97077.38
2022-12-01T03:05:20.921Z,97076.16
2022-12-01T03:08:26.795Z,97080.47
2022-12-01T03:11:01.234Z,97075.44
2022-12-01T03:13:54.047Z,97076.19
2022-12-01T03:17:04.264Z,97067.56
2022-12-01T03:19:44.163Z,97072.66
2022-12-01T03:22:26.471Z,97069.22
2022-12-01T03:25:02.320Z,97072.41
2022-12-01T03:27:41.785Z,97079.28
2022-12-01T03:30:24.674Z,97078.44
2022-12-01T03:33:03.899Z,97079.00
2022-12-01T03:35:56.175Z,97070.03
2022-12-01T03:38:30.161Z,97073.53
2022-12-01T03:41:17.237Z,97076.59
2022-12-01T03:43:59.503Z,97072.03
2022-12-01T03:46:57.633Z,97072.13
2022-12-01T03:49:30.403Z,97074.41
2022-12-01T03:52:53.383Z,97076.31
2022-12-01T03:55:29.213Z,97079.69
2022-12-01T03:58:12.736Z,97074.91
2022-12-01T04:00:46.389Z,97072.94
2022-12-01T04:03:20.496Z,97072.75
2022-12-01T04:05:52.242Z,97071.00
2022-12-01T04:08:24.152Z,97074.78
2022-12-01T04:10:55.699Z,97069.94
2022-12-01T04:13:27.798Z,97080.16
2022-12-01T04:15:59.455Z,97083.28
2022-12-01T04:18:31.252Z,97079.66
2022-12-01T04:21:02.799Z,97075.66
2022-12-01T04:23:34.343Z,97080.00
2022-12-01T04:26:07.338Z,97082.53
2022-12-01T04:28:41.610Z,97080.50
2022-12-01T04:31:13.191Z,97087.50
2022-12-01T04:33:44.752Z,97080.97
2022-12-01T04:36:16.321Z,97084.69
2022-12-01T04:38:47.920Z,97097.66
2022-12-01T04:41:19.850Z,97088.47
2022-12-01T04:43:55.300Z,97091.00
2022-12-01T04:46:26.961Z,97094.25
2022-12-01T04:48:58.501Z,97089.22
2022-12-01T04:51:30.075Z,97099.03
2022-12-01T04:54:02.902Z,97090.22
2022-12-01T04:56:34.417Z,97101.06
2022-12-01T04:59:05.913Z,97095.97
2022-12-01T05:01:38.609Z,97095.47
2022-12-01T05:04:14.607Z,97095.28
2022-12-01T05:06:46.131Z,97097.78
2022-12-01T05:09:18.061Z,97090.88
2022-12-01T05:11:49.637Z,97095.34
2022-12-01T05:14:21.140Z,97092.25
2022-12-01T05:16:52.831Z,97086.56
2022-12-01T05:19:24.398Z,97095.88
2022-12-01T05:21:55.911Z,97091.38
2022-12-01T05:24:27.480Z,97086.31
2022-12-01T05:26:59.018Z,97083.91
2022-12-01T05:29:30.580Z,97087.72
2022-12-01T05:32:02.204Z,97088.53
2022-12-01T05:34:33.786Z,97089.59
2022-12-01T05:37:05.421Z,97092.75
2022-12-01T05:39:36.953Z,97092.88
2022-12-01T05:42:08.481Z,97097.78
2022-12-01T05:44:40.027Z,97090.47
2022-12-01T05:47:11.556Z,97094.78
2022-12-01T05:49:43.087Z,97095.91
2022-12-01T05:52:14.724Z,97099.84
2022-12-01T05:54:46.254Z,97090.84
2022-12-01T05:57:17.805Z,97103.16
2022-12-01T05:59:49.448Z,97101.06
2022-12-01T06:02:21.270Z,97102.44
2022-12-01T06:04:53.521Z,97096.63
2022-12-01T06:07:25.191Z,97100.63
2022-12-01T06:09:56.722Z,97100.16
2022-12-01T06:12:28.655Z,97099.59
2022-12-01T06:15:00.170Z,97094.97
2022-12-01T06:17:34.635Z,97097.59
2022-12-01T06:20:11.044Z,97096.66
2022-12-01T06:22:42.801Z,97107.44
2022-12-01T06:25:14.289Z,97100.06
2022-12-01T06:27:45.886Z,97105.03
2022-12-01T06:30:17.594Z,97105.84
2022-12-01T06:32:49.108Z,97111.31
2022-12-01T06:35:20.638Z,97107.34
2022-12-01T06:37:53.553Z,97114.97
2022-12-01T06:40:25.043Z,97109.88
2022-12-01T06:43:00.587Z,97116.34
2022-12-01T06:45:32.532Z,97110.75
2022-12-01T06:48:04.289Z,97110.56
2022-12-01T06:50:35.865Z,97113.97
2022-12-01T06:53:07.451Z,97119.22
2022-12-01T06:55:39.420Z,97118.84
2022-12-01T06:58:11.084Z,97113.59
2022-12-01T07:00:46.376Z,97119.84
2022-12-01T07:03:20.500Z,97119.66
2022-12-01T07:05:59.841Z,97122.59
2022-12-01T07:08:32.212Z,97129.56
2022-12-01T07:11:07.516Z,97123.53
2022-12-01T07:13:40.476Z,97133.69
2022-12-01T07:16:12.760Z,97128.75
2022-12-01T07:18:44.379Z,97133.78
2022-12-01T07:21:16.816Z,97141.34
2022-12-01T07:23:48.368Z,97139.22
2022-12-01T07:26:19.841Z,97132.28
2022-12-01T07:28:52.906Z,97140.09
2022-12-01T07:31:24.480Z,97138.78
2022-12-01T07:33:56.048Z,97140.63
2022-12-01T07:36:27.672Z,97136.50
2022-12-01T07:38:59.203Z,97133.78
2022-12-01T07:41:30.737Z,97138.78
2022-12-01T07:44:02.977Z,97144.69
2022-12-01T07:46:34.642Z,97145.72
2022-12-01T07:49:08.050Z,97152.78
2022-12-01T07:51:39.582Z,97147.16
2022-12-01T07:54:11.595Z,97157.66
2022-12-01T07:56:43.146Z,97152.06
2022-12-01T07:59:14.633Z,97150.00
2022-12-01T08:01:46.212Z,97155.84
2022-12-01T08:04:17.755Z,97154.28
2022-12-01T08:06:49.283Z,97149.66
2022-12-01T08:09:20.785Z,97150.28
2022-12-01T08:11:52.303Z,97155.84
2022-12-01T08:14:23.868Z,97156.06
2022-12-01T08:16:55.365Z,97149.38
2022-12-01T08:19:26.861Z,97154.09
2022-12-01T08:21:58.433Z,97150.06
2022-12-01T08:24:29.968Z,97156.88
2022-12-01T08:27:01.485Z,97147.34
2022-12-01T08:29:32.989Z,97154.66
2022-12-01T08:32:04.655Z,97143.94
2022-12-01T08:34:36.359Z,97145.72
2022-12-01T08:37:08.301Z,97150.59
2022-12-01T08:39:39.868Z,97150.69
2022-12-01T08:42:11.523Z,97142.72
2022-12-01T08:44:43.166Z,97149.38
2022-12-01T08:47:18.693Z,97151.16
2022-12-01T08:49:50.726Z,97144.78
2022-12-01T08:52:22.456Z,97148.47
2022-12-01T08:54:53.971Z,97154.75
2022-12-01T08:57:25.627Z,97157.66
2022-12-01T08:59:57.817Z,97154.78
2022-12-01T09:02:29.458Z,97156.97
2022-12-01T09:05:01.082Z,97157.28
2022-12-01T09:07:33.246Z,97160.50
2022-12-01T09:10:05.612Z,97158.88
2022-12-01T09:12:37.149Z,97163.13
2022-12-01T09:15:09.402Z,97157.50
2022-12-01T09:17:40.930Z,97165.75
2022-12-01T09:20:12.831Z,97159.22
2022-12-01T09:22:44.350Z,97156.63
2022-12-01T09:25:15.916Z,97163.38
2022-12-01T09:27:47.407Z,97165.44
2022-12-01T09:30:19.036Z,97155.84
2022-12-01T09:32:50.554Z,97164.25
2022-12-01T09:35:23.608Z,97164.34
2022-12-01T09:37:55.271Z,97163.66
2022-12-01T09:40:33.978Z,97162.63
2022-12-01T09:43:27.619Z,97164.88
2022-12-01T09:46:05.875Z,97164.59
2022-12-01T09:48:46.625Z,97164.34
2022-12-01T09:51:26.135Z,97175.81
2022-12-01T09:54:00.910Z,97164.50
2022-12-01T09:56:42.484Z,97162.63
2022-12-01T09:59:26.406Z,97171.63
2022-12-01T10:02:02.727Z,97169.28
2022-12-01T10:04:39.774Z,97174.84
2022-12-01T10:07:20.441Z,97166.25
2022-12-01T10:10:01.375Z,97157.00
2022-12-01T10:12:35.432Z,97162.75
2022-12-01T10:15:13.101Z,97164.47
2022-12-01T10:18:22.415Z,97155.66
2022-12-01T10:21:31.267Z,97163.56
2022-12-01T10:24:09.626Z,97158.41
2022-12-01T10:26:59.151Z,97157.97
2022-12-01T10:29:48.731Z,97154.56
2022-12-01T10:32:29.067Z,97151.47
2022-12-01T10:35:00.820Z,97151.81
2022-12-01T10:37:32.756Z,97159.44
2022-12-01T10:40:04.915Z,97159.88
2022-12-01T10:42:44.146Z,97157.16
2022-12-01T10:45:18.631Z,97153.50
2022-12-01T10:48:08.448Z,97149.50
2022-12-01T10:50:40.097Z,97150.44
2022-12-01T10:53:33.440Z,97146.28
2022-12-01T10:56:12.892Z,97139.66
2022-12-01T10:58:52.365Z,97137.19
2022-12-01T11:01:27.786Z,97132.44
2022-12-01T11:04:34.475Z,97133.72
2022-12-01T11:07:06.259Z,97139.41
2022-12-01T11:09:37.858Z,97133.31
2022-12-01T11:12:17.761Z,97133.31
2022-12-01T11:14:56.324Z,97135.91
2022-12-01T11:17:58.421Z,97129.03
2022-12-01T11:20:38.975Z,97131.72
2022-12-01T11:23:19.617Z,97126.41
2022-12-01T11:26:03.050Z,97120.84
2022-12-01T11:28:36.463Z,97128.81
2022-12-01T11:31:10.686Z,97125.22
2022-12-01T11:33:55.061Z,97128.50
2022-12-01T11:36:31.703Z,97121.97
2022-12-01T11:39:04.907Z,97121.59
2022-12-01T11:41:40.961Z,97121.06
2022-12-01T11:44:49.791Z,97119.50
2022-12-01T11:47:23.697Z,97126.38
2022-12-01T11:50:00.057Z,97124.78
2022-12-01T11:52:46.306Z,97118.97
2022-12-01T11:55:24.470Z,97125.84
2022-12-01T11:58:04.216Z,97124.28
2022-12-01T12:00:50.469Z,97121.09
2022-12-01T12:03:39.151Z,97114.03
2022-12-01T12:09:34.481Z,97106.97
2022-12-01T12:12:40.067Z,97111.38
2022-12-01T12:18:56.431Z,97108.41
2022-12-01T12:21:38.660Z,97105.25
2022-12-01T12:24:35.236Z,97106.84
2022-12-01T12:27:09.980Z,97101.47
2022-12-01T12:29:41.481Z,97107.34
2022-12-01T12:32:25.284Z,97105.72
2022-12-01T12:35:25.962Z,97097.75
2022-12-01T12:38:19.276Z,97094.13
2022-12-01T12:41:06.420Z,97095.91
2022-12-01T12:43:48.317Z,97089.00
2022-12-01T12:46:41.857Z,97092.28
2022-12-01T12:49:29.730Z,97089.88
2022-12-01T12:52:16.115Z,97093.03
2022-12-01T12:54:58.745Z,97090.41
2022-12-01T12:57:37.921Z,97091.38
2022-12-01T13:00:17.087Z,97082.41
2022-12-01T13:02:56.321Z,97075.78
2022-12-01T13:05:33.630Z,97083.19
2022-12-01T13:08:19.463Z,97084.09
2022-12-01T13:11:10.024Z,97082.22
2022-12-01T13:13:53.792Z,97074.16
2022-12-01T13:16:35.831Z,97077.91
2022-12-01T13:19:28.848Z,97078.47
2022-12-01T13:22:02.083Z,97074.66
2022-12-01T13:24:34.127Z,97078.44
2022-12-01T13:27:17.059Z,97073.63
2022-12-01T13:29:52.594Z,97079.22
2022-12-01T13:32:35.786Z,97075.81
2022-12-01T13:35:27.086Z,97070.69
2022-12-01T13:38:17.529Z,97072.84
2022-12-01T13:40:50.080Z,97078.59
2022-12-01T13:43:23.301Z,97076.69
2022-12-01T13:46:03.204Z,97076.59
2022-12-01T13:48:37.741Z,97071.66
2022-12-01T13:51:09.393Z,97075.63
2022-12-01T13:54:04.364Z,97077.69
2022-12-01T13:56:46.796Z,97072.34
2022-12-01T13:59:41.816Z,97072.44
2022-12-01T14:02:21.121Z,97068.16
2022-12-01T14:04:52.848Z,97068.88
2022-12-01T14:07:34.872Z,97069.06
2022-12-01T14:10:24.171Z,97062.34
2022-12-01T14:13:01.612Z,97072.13
2022-12-01T14:15:38.191Z,97071.09
2022-12-01T14:18:29.919Z,97072.47
2022-12-01T14:21:06.038Z,97071.41
2022-12-01T14:24:01.035Z,97071.41
2022-12-01T14:26:44.930Z,97071.25
2022-12-01T14:29:32.622Z,97079.19
2022-12-01T14:32:10.246Z,97072.28
2022-12-01T14:34:43.188Z,97081.78
2022-12-01T14:37:20.224Z,97085.22
2022-12-01T14:40:11.297Z,97074.94
2022-12-01T14:42:52.184Z,97077.72
2022-12-01T14:45:38.482Z,97075.22
2022-12-01T14:48:18.520Z,97081.28
2022-12-01T14:50:58.502Z,97068.59
2022-12-01T14:53:41.751Z,97069.13
2022-12-01T14:56:19.273Z,97078.97
2022-12-01T14:58:58.682Z,97080.72
2022-12-01T15:01:35.356Z,97074.69
2022-12-01T15:04:07.169Z,97076.72
2022-12-01T15:06:38.984Z,97083.63
2022-12-01T15:09:36.836Z,97077.78
2022-12-01T15:12:27.152Z,97083.59
2022-12-01T15:14:58.801Z,97084.66
2022-12-01T15:17:33.673Z,97091.38
2022-12-01T15:20:35.702Z,97091.78
2022-12-01T15:23:16.474Z,97083.97
2022-12-01T15:25:48.020Z,97087.53
2022-12-01T15:28:28.644Z,97088.59
2022-12-01T15:31:09.390Z,97089.50
2022-12-01T15:33:51.910Z,97089.75
2022-12-01T15:36:24.924Z,97090.72
2022-12-01T15:39:00.985Z,97092.44
2022-12-01T15:41:41.327Z,97091.91
2022-12-01T15:44:34.261Z,97090.09
2022-12-01T15:47:43.078Z,97093.81
2022-12-01T15:50:26.826Z,97096.53
2022-12-01T15:53:02.496Z,97090.28
2022-12-01T15:55:37.977Z,97089.66
2022-12-01T15:58:27.089Z,97096.50
2022-12-01T16:01:07.156Z,97099.91
2022-12-01T16:03:56.597Z,97102.00
2022-12-01T16:06:33.461Z,97106.84
2022-12-01T16:09:23.713Z,97100.91
2022-12-01T16:12:14.287Z,97100.88
2022-12-01T16:15:00.630Z,97096.19
2022-12-01T16:17:53.163Z,97096.50
2022-12-01T16:20:26.693Z,97097.81
2022-12-01T16:23:09.637Z,97106.50
2022-12-01T16:25:45.505Z,97104.06
2022-12-01T16:28:23.921Z,97103.09
2022-12-01T16:30:55.634Z,97104.91
2022-12-01T16:33:29.023Z,97096.84
2022-12-01T16:36:01.110Z,97101.72
2022-12-01T16:38:32.678Z,97101.44
2022-12-01T16:41:23.759Z,97093.34
2022-12-01T16:44:26.596Z,97095.00
2022-12-01T16:49:19.073Z,97090.53
2022-12-01T16:51:56.051Z,97092.56
2022-12-01T16:54:28.473Z,97096.81
2022-12-01T16:57:00.128Z,97096.81
2022-12-01T16:59:32.104Z,97099.31
2022-12-01T17:02:03.705Z,97101.78
2022-12-01T17:04:35.284Z,97098.59
2022-12-01T17:07:06.822Z,97098.19
2022-12-01T17:09:38.369Z,97096.78
2022-12-01T17:12:09.872Z,97101.72
2022-12-01T17:14:41.363Z,97101.28
2022-12-01T17:17:12.949Z,97100.63
2022-12-01T17:19:44.503Z,97096.53
2022-12-01T17:22:16.020Z,97097.72
2022-12-01T17:24:47.777Z,97094.13
2022-12-01T17:27:19.430Z,97096.09
2022-12-01T17:29:51.098Z,97096.63
2022-12-01T17:32:22.607Z,97092.84
2022-12-01T17:34:54.540Z,97093.31
2022-12-01T17:37:26.324Z,97098.69
2022-12-01T17:39:57.906Z,97091.59
2022-12-01T17:42:34.501Z,97097.97
2022-12-01T17:45:15.658Z,97098.13
2022-12-01T17:47:47.413Z,97096.09
2022-12-01T17:50:18.981Z,97093.97
2022-12-01T17:52:50.503Z,97098.88
2022-12-01T17:55:21.997Z,97092.06
2022-12-01T17:57:53.531Z,97096.59
2022-12-01T18:00:25.795Z,97099.47
2022-12-01T18:02:57.447Z,97100.94
2022-12-01T18:05:29.086Z,97087.91
2022-12-01T18:08:00.779Z,97098.47
2022-12-01T18:10:32.471Z,97091.78
2022-12-01T18:13:03.989Z,97088.69
2022-12-01T18:15:35.535Z,97104.25
2022-12-01T18:18:07.109Z,97098.16
2022-12-01T18:20:42.929Z,97094.00
2022-12-01T18:23:14.503Z,97094.97
2022-12-01T18:25:46.026Z,97096.78
2022-12-01T18:28:17.540Z,97096.78
2022-12-01T18:30:49.102Z,97094.72
2022-12-01T18:33:20.648Z,97099.38
2022-12-01T18:35:52.186Z,97099.06
2022-12-01T18:38:23.716Z,97090.72
2022-12-01T18:40:59.916Z,97094.41
2022-12-01T18:43:32.595Z,97091.72
2022-12-01T18:46:06.236Z,97093.38
2022-12-01T18:48:38.022Z,97094.47
2022-12-01T18:51:10.772Z,97095.16
2022-12-01T18:53:42.870Z,97093.75
2022-12-01T18:56:15.510Z,97088.03
2022-12-01T18:58:47.186Z,97089.72
2022-12-01T19:01:32.542Z,97091.03
2022-12-01T19:04:06.229Z,97079.25
2022-12-01T19:06:40.166Z,97073.59
2022-12-01T19:09:14.255Z,97078.88
2022-12-01T19:11:46.700Z,97077.50
2022-12-01T19:14:18.849Z,97084.16
2022-12-01T19:16:50.915Z,97082.84
2022-12-01T19:19:23.140Z,97076.09
2022-12-01T19:21:54.724Z,97080.25
2022-12-01T19:24:26.343Z,97080.25
2022-12-01T19:26:57.886Z,97078.94
2022-12-01T19:29:29.370Z,97077.22
2022-12-01T19:32:01.066Z,97079.41
2022-12-01T19:34:32.748Z,97090.97
2022-12-01T19:37:06.056Z,97082.28
2022-12-01T19:39:38.219Z,97086.72
2022-12-01T19:42:09.733Z,97089.31
2022-12-01T19:44:41.354Z,97090.16
2022-12-01T19:47:14.683Z,97087.63
2022-12-01T19:49:49.260Z,97096.38
2022-12-01T19:52:20.788Z,97095.41
2022-12-01T19:54:53.109Z,97101.38
2022-12-01T19:57:24.800Z,97103.25
2022-12-01T19:59:56.306Z,97097.56
2022-12-01T20:02:29.511Z,97107.91
2022-12-01T20:05:01.204Z,97099.69
2022-12-01T20:07:32.783Z,97107.53
2022-12-01T20:10:05.116Z,97103.81
2022-12-01T20:12:36.655Z,97106.56
2022-12-01T20:15:08.725Z,97102.09
2022-12-01T20:17:40.468Z,97108.50
2022-12-01T20:20:12.441Z,97114.75
2022-12-01T20:22:44.218Z,97115.47
2022-12-01T20:25:15.896Z,97113.78
2022-12-01T20:27:47.442Z,97109.28
2022-12-01T20:30:19.052Z,97114.63
2022-12-01T20:32:50.557Z,97101.53
2022-12-01T20:35:22.122Z,97108.59
2022-12-01T20:37:53.717Z,97114.38
2022-12-01T20:40:25.418Z,97112.31
2022-12-01T20:42:56.918Z,97116.47
2022-12-01T20:45:28.657Z,97110.19
2022-12-01T20:48:00.186Z,97106.22
2022-12-01T20:50:32.461Z,97103.81
2022-12-01T20:53:04.108Z,97105.72
2022-12-01T20:55:36.655Z,97102.75
2022-12-01T20:58:08.633Z,97103.38
2022-12-01T21:00:42.513Z,97109.09
2022-12-01T21:03:14.718Z,97100.75
2022-12-01T21:05:46.240Z,97109.00
2022-12-01T21:08:17.792Z,97106.50
2022-12-01T21:10:49.345Z,97102.28
2022-12-01T21:13:24.100Z,97104.16
2022-12-01T21:16:01.881Z,97104.28
2022-12-01T21:18:42.045Z,97110.63
2022-12-01T21:21:25.751Z,97104.84
2022-12-01T21:24:12.820Z,97106.16
2022-12-01T21:27:14.787Z,97091.56
2022-12-01T21:29:49.568Z,97096.16
2022-12-01T21:32:31.163Z,97097.09
2022-12-01T21:35:29.170Z,97089.47
2022-12-01T21:38:06.994Z,97093.28
2022-12-01T21:40:42.240Z,97088.91
2022-12-01T21:43:24.924Z,97094.94
2022-12-01T21:46:10.180Z,97088.59
2022-12-01T21:48:42.841Z,97086.69
2022-12-01T21:51:14.346Z,97089.88
2022-12-01T21:53:47.288Z,97096.19
2022-12-01T21:56:27.266Z,97096.19
2022-12-01T21:59:10.863Z,97095.63
2022-12-01T22:01:42.520Z,97093.19
2022-12-01T22:04:28.809Z,97102.50
2022-12-01T22:07:00.395Z,97100.81
2022-12-01T22:09:35.265Z,97104.00
2022-12-01T22:12:26.031Z,97096.69
2022-12-01T22:15:01.477Z,97100.22
2022-12-01T22:17:33.007Z,97099.56
2022-12-01T22:20:21.453Z,97098.72
2022-12-01T22:22:53.020Z,97096.63
2022-12-01T22:25:26.839Z,97094.25
2022-12-01T22:27:58.743Z,97100.44
2022-12-01T22:30:30.235Z,97096.81
2022-12-01T22:33:05.141Z,97095.22
2022-12-01T22:35:48.380Z,97096.06
2022-12-01T22:38:25.028Z,97094.06
2022-12-01T22:41:02.627Z,97096.47
2022-12-01T22:43:57.166Z,97095.59
2022-12-01T22:46:37.960Z,97097.16
2022-12-01T22:49:23.086Z,97091.88
2022-12-01T22:52:00.260Z,97092.94
2022-12-01T22:54:37.374Z,97095.06
2022-12-01T22:57:26.173Z,97106.09
2022-12-01T23:00:01.521Z,97092.47
2022-12-01T23:02:34.961Z,97093.16
2022-12-01T23:05:25.565Z,97089.72
2022-12-01T23:07:57.666Z,97088.34
2022-12-01T23:10:33.627Z,97082.94
2022-12-01T23:13:19.595Z,97085.38
2022-12-01T23:15:53.143Z,97083.81
2022-12-01T23:18:29.137Z,97084.63
2022-12-01T23:21:02.046Z,97084.66
2022-12-01T23:23:36.830Z,97081.31
2022-12-01T23:26:08.948Z,97078.31
2022-12-01T23:28:40.520Z,97078.81
2022-12-01T23:31:12.117Z,97071.44
2022-12-01T23:33:43.795Z,97077.69
2022-12-01T23:36:16.611Z,97074.16
2022-12-01T23:38:52.743Z,97068.75
2022-12-01T23:41:41.719Z,97065.78
2022-12-01T23:44:21.104Z,97050.97
2022-12-01T23:46:56.501Z,97055.19
2022-12-01T23:49:33.039Z,97056.91
2022-12-01T23:52:13.319Z,97054.31
2022-12-01T23:54:45.037Z,97047.13
2022-12-01T23:57:23.468Z,97046.06
2022-12-01T23:59:59.708Z,97048.69
